Time;durP1;ratioP1;P1;durP2;ratioP2;P2;SDS_P1;SDS_P2;PMS_P1;PMS_P2;Temp;Humidity;BMP_temperature;BMP_pressure;BME280_temperature;BME280_humidity;BME280_pressure;Samples;Min_cycle;Max_cycle;Signal;HPM_P1;HPM_P2
2023/04/01 00:01:13;;;;;;;6.68;1.75;;;;;;;9.60;100.00;99225.47;5036643;28;100103;-30
2023/04/01 00:03:39;;;;;;;3.25;1.63;;;;;;;9.58;100.00;99222.88;5036072;28;102085;-29
2023/04/01 00:06:05;;;;;;;3.72;1.50;;;;;;;9.56;100.00;99230.28;5038155;27;96684;-29
2023/04/01 00:08:31;;;;;;;4.82;1.23;;;;;;;9.56;100.00;99227.59;5036162;28;96971;-29
2023/04/01 00:10:57;;;;;;;4.40;1.33;;;;;;;9.56;100.00;99227.59;5036963;28;99636;-29
2023/04/01 00:13:25;;;;;;;2.88;1.45;;;;;;;9.57;100.00;99222.03;5035901;28;100949;-29
2023/04/01 00:15:51;;;;;;;6.00;1.40;;;;;;;9.56;100.00;99230.28;5036094;28;96770;-29
2023/04/01 00:18:16;;;;;;;7.75;1.45;;;;;;;9.54;100.00;99233.09;5036435;28;96800;-29
2023/04/01 00:20:46;;;;;;;3.85;1.38;;;;;;;9.54;100.00;99235.81;5036909;27;98731;-29
2023/04/01 00:23:12;;;;;;;3.28;1.55;;;;;;;9.53;100.00;99231.41;5035496;28;101196;-30
2023/04/01 00:25:37;;;;;;;3.47;1.05;;;;;;;9.52;100.00;99235.06;5037202;27;96496;-31
2023/04/01 00:28:03;;;;;;;3.35;1.25;;;;;;;9.52;100.00;99237.78;5036389;27;96740;-29
2023/04/01 00:30:28;;;;;;;5.32;1.45;;;;;;;9.51;100.00;99246.00;5036928;27;100878;-29
2023/04/01 00:32:53;;;;;;;2.80;1.25;;;;;;;9.47;100.00;99247.28;5036693;27;98813;-29
2023/04/01 00:35:19;;;;;;;3.30;1.38;;;;;;;9.47;100.00;99244.56;5037181;27;96494;-29
2023/04/01 00:37:45;;;;;;;5.35;1.58;;;;;;;9.46;100.00;99246.41;5035534;28;96884;-29
2023/04/01 00:40:27;;;;;;;4.05;1.50;;;;;;;9.46;100.00;99238.31;5036937;27;97885;-29
2023/04/01 00:42:52;;;;;;;;;;;;;;;9.48;100.00;99252.53;5037794;28;97903;-29
2023/04/01 00:45:28;;;;;;;2.58;1.05;;;;;;;9.46;100.00;99256.34;5037513;28;96527;-29
2023/04/01 00:47:54;;;;;;;8.90;1.58;;;;;;;9.46;100.00;99259.94;5036822;27;96816;-29
2023/04/01 00:50:23;;;;;;;2.45;1.23;;;;;;;9.47;100.00;99258.09;5034556;28;101209;-30
2023/04/01 00:52:48;;;;;;;4.72;1.48;;;;;;;9.43;100.00;99264.72;5035158;28;100903;-29
2023/04/01 00:55:16;;;;;;;3.20;1.30;;;;;;;9.40;100.00;99262.28;5036990;27;96717;-29
2023/04/01 00:57:44;;;;;;;5.22;1.42;;;;;;;9.43;100.00;99270.13;5035309;28;96890;-29
2023/04/01 01:00:14;;;;;;;5.93;1.52;;;;;;;9.40;100.00;99273.94;5035018;28;101367;-28
2023/04/01 01:02:44;;;;;;;9.18;1.63;;;;;;;9.40;100.00;99267.69;5036858;27;97541;-30
2023/04/01 01:05:15;;;;;;;3.38;1.35;;;;;;;9.34;100.00;99271.72;5035315;28;96637;-29
2023/04/01 01:07:56;;;;;;;1.98;0.98;;;;;;;9.38;100.00;99275.91;5034345;28;96839;-29
2023/04/01 01:10:31;;;;;;;1.63;0.88;;;;;;;9.38;100.00;99280.44;5036124;28;99300;-29
2023/04/01 01:13:15;;;;;;;4.30;1.23;;;;;;;9.38;100.00;99270.50;5034849;28;100121;-29
2023/04/01 01:16:04;;;;;;;3.45;1.58;;;;;;;9.40;100.00;99281.19;5034756;28;96597;-30
2023/04/01 01:18:38;;;;;;;4.32;1.02;;;;;;;9.39;100.00;99276.75;5035168;28;96733;-30
2023/04/01 01:21:07;;;;;;;5.72;1.38;;;;;;;9.39;100.00;99287.56;5018041;28;100960;-30
2023/04/01 01:24:03;;;;;;;2.47;1.33;;;;;;;9.36;100.00;99284.13;5036110;28;97878;-28
2023/04/01 01:26:31;;;;;;;4.05;1.17;;;;;;;9.34;100.00;99283.41;5034710;28;96818;-29
2023/04/01 01:29:34;;;;;;;4.22;1.40;;;;;;;9.30;100.00;99284.66;5036122;27;96890;-30
2023/04/01 01:32:05;;;;;;;1.98;1.15;;;;;;;9.30;100.00;99281.94;5035911;28;97456;-29
2023/04/01 01:34:54;;;;;;;1.10;0.88;;;;;;;9.35;100.00;99286.97;5036569;28;97772;-29
2023/04/01 01:37:23;;;;;;;1.75;1.15;;;;;;;9.33;100.00;99287.09;5027154;27;96810;-30
2023/04/01 01:39:54;;;;;;;2.75;0.52;;;;;;;9.31;100.00;99278.25;5034875;28;96870;-29
2023/04/01 01:42:22;;;;;;;1.65;0.85;;;;;;;9.34;100.00;99287.94;5035103;27;99455;-29
2023/04/01 01:44:49;;;;;;;5.57;1.02;;;;;;;9.32;100.00;99293.50;5034405;28;100956;-29
2023/04/01 01:47:17;;;;;;;4.10;1.33;;;;;;;9.32;100.00;99293.50;5034852;28;96806;-29
2023/04/01 01:49:44;;;;;;;1.10;0.63;;;;;;;9.28;100.00;99301.97;5034634;27;96815;-29
2023/04/01 01:52:11;;;;;;;1.42;0.85;;;;;;;9.30;100.00;99300.84;5034101;28;100987;-29
2023/04/01 01:54:47;;;;;;;5.93;1.15;;;;;;;9.28;100.00;99302.81;5034233;28;100866;-29
2023/04/01 01:57:14;;;;;;;2.28;1.00;;;;;;;9.28;100.00;99310.91;5034663;28;96632;-29
2023/04/01 01:59:42;;;;;;;6.05;0.95;;;;;;;9.29;100.00;99304.53;5034818;28;96924;-28
2023/04/01 02:02:10;;;;;;;0.82;0.38;;;;;;;9.28;100.00;99312.78;5034180;28;101075;-31
2023/04/01 02:04:40;;;;;;;1.15;0.60;;;;;;;9.27;100.00;99317.31;5034069;28;101318;-29
2023/04/01 02:07:12;;;;;;;2.28;0.80;;;;;;;9.29;100.00;99318.03;5035203;27;96687;-29
2023/04/01 02:09:38;;;;;;;2.10;1.10;;;;;;;9.28;100.00;99324.44;5035595;27;96625;-29
2023/04/01 02:12:10;;;;;;;3.65;1.27;;;;;;;9.27;100.00;99327.25;5033759;28;101089;-29
2023/04/01 02:14:45;;;;;;;0.70;0.60;;;;;;;9.21;100.00;99327.75;5035145;27;99603;-29
2023/04/01 02:17:16;;;;;;;2.15;1.05;;;;;;;9.21;100.00;99334.00;5033800;28;96682;-28
2023/04/01 02:19:48;;;;;;;2.42;1.15;;;;;;;9.21;100.00;99333.16;5034280;28;96866;-29
2023/04/01 02:22:19;;;;;;;1.02;0.65;;;;;;;9.21;100.00;99333.16;5033952;28;100783;-29
2023/04/01 02:24:45;;;;;;;0.93;0.57;;;;;;;9.20;100.00;99337.72;5034055;28;101307;-29
2023/04/01 02:27:11;;;;;;;1.95;0.73;;;;;;;9.20;100.00;99337.72;5035060;27;96616;-28
2023/04/01 02:29:36;;;;;;;1.30;0.65;;;;;;;9.19;100.00;99343.22;5035316;27;96831;-28
2023/04/01 02:32:04;;;;;;;1.35;0.50;;;;;;;9.19;100.00;99349.47;5034579;28;97844;-29
2023/04/01 02:34:29;;;;;;;0.82;0.50;;;;;;;9.17;100.00;99342.47;5033460;28;101291;-30
2023/04/01 02:36:55;;;;;;;0.95;0.55;;;;;;;9.14;100.00;99347.16;5035394;27;96840;-29
2023/04/01 02:39:21;;;;;;;0.52;0.47;;;;;;;9.13;100.00;99350.84;5033921;28;96764;-29
2023/04/01 02:41:46;;;;;;;0.60;0.40;;;;;;;9.15;100.00;99348.00;5034879;27;99332;-29
2023/04/01 02:44:14;;;;;;;2.83;0.80;;;;;;;9.18;100.00;99355.03;5035134;27;97830;-28
2023/04/01 02:46:40;;;;;;;0.50;0.32;;;;;;;9.17;100.00;99342.47;5033790;28;96712;-30
2023/04/01 02:49:05;;;;;;;0.50;0.25;;;;;;;9.16;100.00;99351.59;5035331;27;96817;-30
2023/04/01 02:51:31;;;;;;;2.40;0.60;;;;;;;9.14;100.00;99357.94;5034634;27;99219;-29
2023/04/01 02:53:57;;;;;;;1.35;0.50;;;;;;;9.14;100.00;99360.66;5034865;27;97268;-29
2023/04/01 02:56:22;;;;;;;0.93;0.38;;;;;;;9.14;100.00;99355.25;5034320;27;96522;-30
2023/04/01 02:58:48;;;;;;;0.52;0.43;;;;;;;9.17;100.00;99366.78;5034792;27;96880;-29
2023/04/01 03:01:14;;;;;;;0.70;0.43;;;;;;;9.17;100.00;99370.34;5034849;27;97575;-28
2023/04/01 03:03:39;;;;;;;1.00;0.38;;;;;;;9.18;100.00;99379.34;5034719;27;97798;-28
2023/04/01 03:06:10;;;;;;;0.35;0.35;;;;;;;9.18;100.00;99384.75;5034636;27;96599;-28
2023/04/01 03:08:35;;;;;;;0.60;0.45;;;;;;;9.16;100.00;99381.31;5033592;28;96709;-29
2023/04/01 03:11:01;;;;;;;0.88;0.57;;;;;;;9.19;100.00;99387.31;5033011;28;100995;-29
2023/04/01 03:13:26;;;;;;;0.40;0.40;;;;;;;9.20;100.00;99390.84;5034645;27;99592;-29
2023/04/01 03:15:52;;;;;;;0.85;0.70;;;;;;;9.20;100.00;99396.25;5034928;28;96513;-29
2023/04/01 03:18:18;;;;;;;2.17;1.33;;;;;;;9.17;100.00;99397.38;5034203;27;97937;-29
2023/04/01 03:20:44;;;;;;;1.75;1.17;;;;;;;9.14;100.00;99400.31;5034249;27;97802;-29
2023/04/01 03:23:10;;;;;;;1.50;1.15;;;;;;;9.13;100.00;99409.41;5033062;28;101072;-29
2023/04/01 03:25:35;;;;;;;2.97;1.58;;;;;;;9.12;100.00;99407.69;5034536;27;96954;-28
2023/04/01 03:28:01;;;;;;;2.60;1.48;;;;;;;9.14;100.00;99417.38;5034170;27;96818;-29
2023/04/01 03:30:26;;;;;;;3.72;2.08;;;;;;;9.17;100.00;99421.69;5035995;27;99222;-29
2023/04/01 03:32:52;;;;;;;4.50;1.92;;;;;;;9.18;100.00;99420.72;5037552;27;97354;-29
2023/04/01 03:35:18;;;;;;;5.05;2.35;;;;;;;9.17;100.00;99427.09;5038117;28;96824;-29
2023/04/01 03:37:43;;;;;;;2.95;1.98;;;;;;;9.18;100.00;99426.13;5038323;27;96841;-29
2023/04/01 03:40:09;;;;;;;3.25;1.88;;;;;;;9.19;100.00;99435.06;5036372;28;101090;-28
2023/04/01 03:42:34;;;;;;;7.53;2.45;;;;;;;9.19;100.00;99432.38;5036274;28;100767;-29
2023/04/01 03:45:00;;;;;;;4.40;1.85;;;;;;;9.19;100.00;99443.19;5037437;27;96724;-29
2023/04/01 03:47:26;;;;;;;2.30;1.73;;;;;;;9.23;100.00;99444.66;5038352;27;96838;-29
2023/04/01 03:49:51;;;;;;;6.20;2.90;;;;;;;9.25;100.00;99445.41;5037606;27;99197;-29
2023/04/01 03:52:16;;;;;;;7.45;3.15;;;;;;;9.24;100.00;99449.09;5037553;27;97779;-29
2023/04/01 03:54:41;;;;;;;6.07;2.58;;;;;;;9.20;100.00;99443.06;5038043;27;96701;-30
2023/04/01 03:57:07;;;;;;;6.78;2.65;;;;;;;9.18;100.00;99455.84;5038062;27;96910;-29
2023/04/01 03:59:32;;;;;;;4.22;2.22;;;;;;;9.21;100.00;99463.69;5037543;27;99291;-29
2023/04/01 04:01:57;;;;;;;5.72;2.45;;;;;;;9.23;100.00;99464.44;5037813;27;97759;-29
2023/04/01 04:04:23;;;;;;;4.15;2.25;;;;;;;9.24;100.00;99468.00;5037730;27;96482;-29
2023/04/01 04:06:48;;;;;;;3.25;2.05;;;;;;;9.23;100.00;99475.25;5038097;27;96758;-29
2023/04/01 04:09:13;;;;;;;5.35;2.30;;;;;;;9.23;100.00;99467.13;5037014;27;97380;-29
2023/04/01 04:11:39;;;;;;;10.82;2.92;;;;;;;9.25;100.00;99476.00;5037413;27;97429;-28
2023/04/01 04:14:04;;;;;;;7.40;2.53;;;;;;;9.26;100.00;99485.81;5037262;27;96536;-29
2023/04/01 04:16:30;;;;;;;2.95;1.77;;;;;;;9.26;100.00;99488.50;5037269;27;96813;-30
2023/04/01 04:18:55;;;;;;;3.10;1.95;;;;;;;9.26;100.00;99493.91;5035907;28;99542;-29
2023/04/01 04:21:21;;;;;;;3.30;2.25;;;;;;;9.30;100.00;99502.66;5037299;27;97271;-29
2023/04/01 04:23:46;;;;;;;5.78;2.40;;;;;;;9.30;100.00;99510.75;5037562;27;96595;-29
2023/04/01 04:26:14;;;;;;;4.43;2.22;;;;;;;9.27;100.00;99506.47;5037547;27;96805;-29
2023/04/01 04:28:40;;;;;;;3.75;1.90;;;;;;;9.28;100.00;99508.16;5035027;28;100951;-29
2023/04/01 04:31:06;;;;;;;5.07;2.17;;;;;;;9.26;100.00;99520.06;5035189;28;100881;-29
2023/04/01 04:33:33;;;;;;;6.90;2.75;;;;;;;9.28;100.00;99521.69;5036578;27;96493;-28
2023/04/01 04:35:59;;;;;;;6.00;2.33;;;;;;;9.28;100.00;99528.94;5035606;28;96894;-30
2023/04/01 04:38:25;;;;;;;6.03;2.15;;;;;;;9.27;100.00;99522.66;5035353;28;101313;-30
2023/04/01 04:40:50;;;;;;;3.72;2.30;;;;;;;9.29;100.00;99534.19;5036749;27;97308;-29
2023/04/01 04:43:17;;;;;;;6.38;1.77;;;;;;;9.29;100.00;99533.34;5035808;28;96720;-29
2023/04/01 04:45:43;;;;;;;5.65;2.20;;;;;;;9.29;100.00;99544.16;5035525;28;96821;-28
2023/04/01 04:48:10;;;;;;;3.72;1.90;;;;;;;9.27;100.00;99532.59;5036605;28;99022;-29
2023/04/01 04:50:35;;;;;;;4.18;2.25;;;;;;;9.27;100.00;99541.59;5035561;27;100935;-29
2023/04/01 04:53:01;;;;;;;4.07;2.45;;;;;;;9.28;100.00;99542.44;5036770;27;96671;-29
2023/04/01 04:55:27;;;;;;;3.90;2.20;;;;;;;9.28;100.00;99551.41;5035549;28;96831;-29
2023/04/01 04:57:52;;;;;;;6.30;2.15;;;;;;;9.28;100.00;99546.00;5036361;27;97376;-30
2023/04/01 05:00:18;;;;;;;5.15;2.55;;;;;;;9.30;100.00;99570.22;5036034;27;99238;-29
2023/04/01 05:02:43;;;;;;;3.30;1.90;;;;;;;9.27;100.00;99565.91;5037017;27;96792;-29
2023/04/01 05:05:09;;;;;;;2.83;1.90;;;;;;;9.27;100.00;99571.31;5036682;27;96813;-29
2023/04/01 05:07:34;;;;;;;5.47;2.67;;;;;;;9.28;100.00;99577.56;5036659;27;97409;-29
2023/04/01 05:09:59;;;;;;;3.80;2.28;;;;;;;9.27;100.00;99575.81;5036520;27;97818;-29
2023/04/01 05:12:25;;;;;;;3.88;2.10;;;;;;;9.25;100.00;99584.06;5035173;28;96581;-29
2023/04/01 05:14:50;;;;;;;4.25;2.40;;;;;;;9.28;100.00;99588.38;5037087;27;96744;-29
2023/04/01 05:17:15;;;;;;;4.70;2.30;;;;;;;9.24;100.00;99582.31;5036385;27;97933;-30
2023/04/01 05:19:41;;;;;;;5.13;2.92;;;;;;;9.27;100.00;99600.13;5036436;27;97287;-28
2023/04/01 05:22:06;;;;;;;4.00;2.08;;;;;;;9.28;100.00;99599.19;5036143;27;96570;-31
2023/04/01 05:24:32;;;;;;;3.88;2.30;;;;;;;9.28;100.00;99604.59;5036570;27;96782;-29
2023/04/01 05:26:59;;;;;;;5.90;2.08;;;;;;;9.29;100.00;99600.88;5034462;28;100984;-29
2023/04/01 05:29:25;;;;;;;3.95;2.10;;;;;;;9.24;100.00;99608.50;5033983;27;100747;-29
2023/04/01 05:31:51;;;;;;;4.70;2.70;;;;;;;9.24;100.00;99613.91;5034774;28;98048;-29
2023/04/01 05:34:16;;;;;;;4.50;2.00;;;;;;;9.19;100.00;99608.84;5036067;27;96777;-30
2023/04/01 05:36:42;;;;;;;5.00;2.25;;;;;;;9.23;100.00;99625.69;5035714;28;99604;-28
2023/04/01 05:39:08;;;;;;;2.90;2.10;;;;;;;9.19;100.00;99624.19;5034868;27;101111;-29
2023/04/01 05:41:38;;;;;;;5.15;2.35;;;;;;;9.21;100.00;99625.78;5036320;28;96572;-29
2023/04/01 05:44:04;;;;;;;4.05;2.22;;;;;;;9.17;100.00;99627.00;5034640;28;96858;-28
2023/04/01 05:46:29;;;;;;;5.03;2.60;;;;;;;9.22;100.00;99645.56;5033936;28;101457;-29
2023/04/01 05:48:55;;;;;;;5.13;2.53;;;;;;;9.21;100.00;99642.00;5035515;27;99272;-28
2023/04/01 05:51:20;;;;;;;5.78;2.47;;;;;;;9.24;100.00;99641.75;5036050;27;96645;-29
2023/04/01 05:53:46;;;;;;;6.65;2.67;;;;;;;9.25;100.00;99648.91;5033871;27;97012;-29
2023/04/01 05:56:12;;;;;;;5.07;1.50;;;;;;;9.21;100.00;99644.72;5035356;27;99701;-31
2023/04/01 05:58:37;;;;;;;3.55;2.03;;;;;;;9.23;100.00;99655.41;5035487;28;97897;-29
2023/04/01 06:01:06;;;;;;;4.60;2.17;;;;;;;9.23;100.00;99664.38;5036126;27;96589;-30
2023/04/01 06:03:32;;;;;;;5.10;2.60;;;;;;;9.24;100.00;99667.94;5034734;27;96857;-29
2023/04/01 06:05:57;;;;;;;4.20;2.50;;;;;;;9.23;100.00;99674.31;5034084;28;100798;-29
2023/04/01 06:08:24;;;;;;;4.38;2.30;;;;;;;9.21;100.00;99679.84;5035473;27;97249;-29
2023/04/01 06:11:16;;;;;;;7.18;3.05;;;;;;;9.23;100.00;99688.69;5033696;28;96562;-30
2023/04/01 06:13:48;;;;;;;5.35;2.55;;;;;;;9.22;100.00;99696.91;5034352;28;96719;-28
2023/04/01 06:16:22;;;;;;;11.38;2.13;;;;;;;9.21;100.00;99697.88;5035488;28;97999;-29
2023/04/01 06:18:59;;;;;;;3.90;2.47;;;;;;;9.20;100.00;99697.03;5035398;28;98439;-29
2023/04/01 06:21:47;;;;;;;5.28;2.20;;;;;;;9.22;100.00;99711.25;5034350;28;96803;-28
2023/04/01 06:24:30;;;;;;;8.43;2.45;;;;;;;9.22;100.00;99711.25;5034155;28;96623;-29
2023/04/01 06:27:17;;;;;;;3.72;2.40;;;;;;;9.22;100.00;99713.97;5035195;28;97956;-31
2023/04/01 06:30:02;;;;;;;4.43;2.60;;;;;;;9.23;100.00;99725.66;5034134;28;101112;-28
2023/04/01 06:32:56;;;;;;;5.05;2.55;;;;;;;9.22;100.00;99721.22;5034047;28;96612;-31
2023/04/01 06:35:36;;;;;;;6.47;1.98;;;;;;;9.22;100.00;99724.78;5034067;28;96765;-29
2023/04/01 06:38:14;;;;;;;5.00;2.72;;;;;;;9.21;100.00;99733.00;5033197;28;100039;-28
2023/04/01 06:40:58;;;;;;;5.10;2.47;;;;;;;9.20;100.00;99740.25;5034897;27;99237;-29
2023/04/01 06:43:37;;;;;;;8.30;2.30;;;;;;;9.20;100.00;99736.69;5035389;28;96671;-29
2023/04/01 06:46:14;;;;;;;4.13;1.80;;;;;;;9.20;100.00;99737.56;5033738;28;96675;-29
2023/04/01 06:48:54;;;;;;;9.52;2.83;;;;;;;9.17;100.00;99742.31;5034548;27;99201;-29
2023/04/01 06:51:47;;;;;;;4.35;2.53;;;;;;;9.16;100.00;99746.00;5033391;28;100936;-30
2023/04/01 06:54:20;;;;;;;4.10;2.58;;;;;;;9.16;100.00;99751.41;5033775;28;96546;-28
2023/04/01 06:56:50;;;;;;;4.05;2.45;;;;;;;9.13;100.00;99752.50;5033994;28;96705;-29
2023/04/01 06:59:20;;;;;;;5.30;2.58;;;;;;;9.12;100.00;99751.59;5033333;28;100821;-29
2023/04/01 07:01:51;;;;;;;7.15;2.30;;;;;;;9.16;100.00;99754.09;5033258;28;101267;-29
2023/04/01 07:04:40;;;;;;;6.72;2.70;;;;;;;9.14;100.00;99757.75;5033087;28;97032;-29
2023/04/01 07:07:26;;;;;;;8.55;2.17;;;;;;;9.20;100.00;99764.59;5035036;28;96631;-29
2023/04/01 07:09:55;;;;;;;6.88;2.47;;;;;;;9.22;100.00;99773.41;5033147;28;100609;-28
2023/04/01 07:12:36;;;;;;;4.18;2.45;;;;;;;9.21;100.00;99774.41;5033076;28;100608;-29
2023/04/01 07:15:14;;;;;;;2.67;1.73;;;;;;;9.19;100.00;99776.34;5033268;28;96631;-29
2023/04/01 07:17:42;;;;;;;3.70;2.00;;;;;;;9.22;100.00;99789.63;5033440;28;96703;-29
2023/04/01 07:20:19;;;;;;;4.15;2.05;;;;;;;9.20;100.00;99790.72;5032919;28;101138;-29
2023/04/01 07:22:51;;;;;;;3.13;1.73;;;;;;;9.21;100.00;99789.75;5034867;27;97915;-30
2023/04/01 07:25:21;;;;;;;5.28;2.20;;;;;;;9.26;100.00;99798.38;5033248;28;96773;-29
2023/04/01 07:27:46;;;;;;;9.00;2.22;;;;;;;9.25;100.00;99797.53;5032765;28;96830;-31
2023/04/01 07:30:18;;;;;;;4.45;1.70;;;;;;;9.28;100.00;99797.28;5033825;27;97877;-29
2023/04/01 07:32:59;;;;;;;;;;;;;;;9.30;100.00;99800.75;5033185;27;101226;-29
2023/04/01 07:35:35;;;;;;;2.60;1.88;;;;;;;9.31;100.00;99805.16;5034463;28;96655;-29
2023/04/01 07:38:32;;;;;;;3.55;1.77;;;;;;;9.33;100.00;99813.16;5033186;28;96606;-30
2023/04/01 07:41:17;;;;;;;3.63;1.40;;;;;;;9.34;100.00;99814.88;5034612;28;97504;-28
2023/04/01 07:43:56;;;;;;;1.58;1.08;;;;;;;9.39;100.00;99814.53;5032723;28;101454;-30
2023/04/01 07:46:44;;;;;;;1.67;1.10;;;;;;;9.40;100.00;99819.84;5033193;28;96586;-29
2023/04/01 07:49:35;;;;;;;4.13;1.33;;;;;;;9.45;100.00;99822.22;5034449;28;96676;-30
2023/04/01 07:52:00;;;;;;;1.52;0.95;;;;;;;9.44;100.00;99824.06;5034135;28;98476;-29
2023/04/01 07:54:49;;;;;;;1.48;1.00;;;;;;;9.44;100.00;99820.47;5034144;28;97320;-29
2023/04/01 07:57:35;;;;;;;1.42;1.08;;;;;;;9.53;100.00;99827.91;5034039;28;96680;-29
2023/04/01 08:00:42;;;;;;;1.67;1.10;;;;;;;9.53;100.00;99839.63;5034579;28;96512;-29
2023/04/01 08:03:48;;;;;;;1.10;0.68;;;;;;;9.52;100.00;99840.56;4993646;28;101929;-30
2023/04/01 08:06:28;;;;;;;1.73;0.90;;;;;;;9.51;100.00;99840.66;5034038;28;97358;-31
2023/04/01 08:09:19;;;;;;;1.38;1.05;;;;;;;9.51;100.00;99856.88;5032830;28;96795;-29
2023/04/01 08:11:48;;;;;;;3.00;1.20;;;;;;;9.49;100.00;99857.03;5030331;27;96865;-29
2023/04/01 08:14:27;;;;;;;3.05;1.23;;;;;;;9.46;100.00;99856.38;5033723;27;97964;-29
2023/04/01 08:17:23;;;;;;;2.53;1.30;;;;;;;9.45;100.00;99860.06;5035306;28;100901;-28
2023/04/01 08:19:59;;;;;;;1.30;1.13;;;;;;;9.47;100.00;99868.94;5036021;28;96596;-29
2023/04/01 08:22:32;;;;;;;2.72;1.00;;;;;;;9.47;100.00;99874.34;5037509;27;96723;-29
2023/04/01 08:25:02;;;;;;;2.72;1.35;;;;;;;9.48;100.00;99870.63;5035481;28;101081;-30
2023/04/01 08:27:39;;;;;;;1.55;1.02;;;;;;;9.50;100.00;99874.97;5034831;28;101408;-29
2023/04/01 08:30:04;;;;;;;3.00;1.50;;;;;;;9.52;100.00;99880.25;5037290;28;96569;-29
2023/04/01 08:32:45;;;;;;;2.20;1.48;;;;;;;9.52;100.00;99872.16;5037411;27;96815;-29
2023/04/01 08:35:16;;;;;;;2.47;1.13;;;;;;;9.53;100.00;99882.88;5035571;28;101149;-29
2023/04/01 08:37:45;;;;;;;2.80;1.58;;;;;;;9.57;100.00;99884.34;5036390;27;99698;-30
2023/04/01 08:40:19;;;;;;;2.63;1.55;;;;;;;9.62;100.00;99891.28;5035932;28;96720;-29
2023/04/01 08:43:29;;;;;;;3.38;1.98;;;;;;;9.63;100.00;99898.38;5037671;27;96775;-28
2023/04/01 08:46:10;;;;;;;4.18;1.70;;;;;;;9.60;100.00;99904.88;5012477;27;98574;-29
2023/04/01 08:48:45;;;;;;;3.03;1.60;;;;;;;9.58;100.00;99909.53;5035231;28;100816;-29
2023/04/01 08:51:30;;;;;;;4.05;1.90;;;;;;;9.54;100.00;99895.41;5037035;27;96722;-29
2023/04/01 08:54:01;;;;;;;4.90;2.17;;;;;;;9.60;100.00;99904.88;5035577;28;96716;-29
2023/04/01 08:56:36;;;;;;;2.80;1.77;;;;;;;9.62;100.00;99908.34;5036760;27;97165;-29
2023/04/01 08:59:17;;;;;;;3.58;1.83;;;;;;;9.65;100.00;99916.22;5035200;28;101082;-29
2023/04/01 09:02:04;;;;;;;4.05;1.63;;;;;;;9.69;100.00;99925.84;5036759;27;96655;-29
2023/04/01 09:05:15;;;;;;;4.50;2.33;;;;;;;9.71;100.00;99926.59;5035471;28;96799;-29
2023/04/01 09:07:56;;;;;;;4.95;2.13;;;;;;;9.70;100.00;99932.13;5036616;27;97858;-29
2023/04/01 09:10:47;;;;;;;4.88;1.67;;;;;;;9.71;100.00;99932.00;5035253;28;99403;-31
2023/04/01 09:13:34;;;;;;;3.45;2.08;;;;;;;9.73;100.00;99940.88;5035271;28;96680;-31
2023/04/01 09:16:05;;;;;;;4.55;2.28;;;;;;;9.73;100.00;99929.22;5036545;28;96672;-29
2023/04/01 09:18:54;;;;;;;4.27;1.67;;;;;;;9.77;100.00;99942.41;5035560;28;98001;-29
2023/04/01 09:21:30;;;;;;;3.17;1.77;;;;;;;9.78;100.00;99944.13;5036265;27;98845;-29
2023/04/01 09:24:44;;;;;;;5.13;2.00;;;;;;;9.80;100.00;99941.31;5035260;28;96715;-29
2023/04/01 09:27:31;;;;;;;2.83;1.73;;;;;;;9.76;100.00;99945.22;5028954;27;96856;-29
2023/04/01 09:30:33;;;;;;;5.72;1.92;;;;;;;9.75;100.00;99948.91;5034700;28;101071;-29
2023/04/01 09:33:35;;;;;;;1.15;1.00;;;;;;;9.74;100.00;99956.13;5034593;28;101567;-29
2023/04/01 09:36:20;;;;;;;2.33;1.20;;;;;;;9.71;100.00;99950.94;5036418;28;96684;-30
2023/04/01 09:39:26;;;;;;;3.08;1.45;;;;;;;9.71;100.00;99964.47;5036840;27;96492;-29
2023/04/01 09:42:01;;;;;;;4.03;1.63;;;;;;;9.76;100.00;99956.03;5034446;28;100808;-30
2023/04/01 09:44:43;;;;;;;3.00;1.67;;;;;;;9.74;100.00;99958.81;5036046;28;97895;-29
2023/04/01 09:47:43;;;;;;;3.45;2.03;;;;;;;9.77;100.00;99974.84;5034327;27;96569;-30
2023/04/01 09:50:31;;;;;;;2.22;1.48;;;;;;;9.79;100.00;99969.31;5034731;28;96806;-29
2023/04/01 09:53:19;;;;;;;2.92;1.88;;;;;;;9.78;100.00;99971.16;5035532;28;99539;-29
2023/04/01 09:55:48;;;;;;;6.90;2.03;;;;;;;9.72;100.00;99982.41;5034404;28;101001;-29
2023/04/01 09:58:25;;;;;;;4.40;2.47;;;;;;;9.73;100.00;99977.88;5035770;28;96730;-29
2023/04/01 10:00:53;;;;;;;3.38;1.67;;;;;;;9.76;100.00;99985.78;5034750;28;96726;-29
2023/04/01 10:03:37;;;;;;;6.18;1.63;;;;;;;9.76;100.00;99988.47;5035691;27;97969;-29
2023/04/01 10:06:24;;;;;;;6.68;2.10;;;;;;;9.77;100.00;99990.19;5035952;28;97990;-29
2023/04/01 10:09:04;;;;;;;2.65;1.60;;;;;;;9.79;100.00;99994.50;5034141;27;96713;-29
2023/04/01 10:12:07;;;;;;;2.88;1.55;;;;;;;9.84;100.00;99991.47;5035959;27;96557;-29
2023/04/01 10:14:58;;;;;;;2.22;1.23;;;;;;;9.85;100.00;99989.66;5034141;28;99823;-29
2023/04/01 10:17:30;;;;;;;2.08;1.40;;;;;;;9.88;100.00;99997.53;5033670;28;100797;-29
2023/04/01 10:20:23;;;;;;;2.38;1.15;;;;;;;9.88;100.00;100006.53;5034154;28;96686;-29
2023/04/01 10:23:07;;;;;;;3.55;1.52;;;;;;;9.89;100.00;100010.09;5035200;28;96557;-29
2023/04/01 10:25:50;;;;;;;2.80;1.35;;;;;;;9.92;100.00;100005.31;5033933;28;100961;-29
2023/04/01 10:28:30;;;;;;;4.18;1.13;;;;;;;9.96;100.00;100009.56;5032970;28;100894;-29
2023/04/01 10:31:20;;;;;;;2.13;1.48;;;;;;;9.94;100.00;100008.78;5033952;28;96616;-30
2023/04/01 10:34:16;;;;;;;2.97;1.65;;;;;;;9.91;100.00;100002.72;5033460;28;97473;-29
2023/04/01 10:36:51;;;;;;;1.52;0.98;;;;;;;9.97;100.00;100013.97;5030754;28;100789;-34
2023/04/01 10:39:45;;;;;;;2.90;1.55;;;;;;;9.98;100.00;100012.97;5032424;28;97310;-30
2023/04/01 10:42:38;;;;;;;2.92;1.55;;;;;;;9.97;100.00;100018.53;5032101;28;96752;-31
2023/04/01 10:45:25;;;;;;;1.58;0.98;;;;;;;10.00;100.00;100019.16;5032655;28;96800;-30
2023/04/01 10:48:08;;;;;;;2.78;1.67;;;;;;;10.01;100.00;100022.75;5034262;28;98010;-30
2023/04/01 10:50:55;;;;;;;2.10;1.60;;;;;;;9.97;100.00;100027.50;5033471;28;100852;-29
2023/04/01 10:53:51;;;;;;;2.13;1.13;;;;;;;9.93;100.00;100023.28;5033785;28;96640;-29
2023/04/01 10:56:33;;;;;;;3.20;1.80;;;;;;;9.91;100.00;100029.78;5035371;27;96893;-29
2023/04/01 10:59:21;;;;;;;2.10;1.27;;;;;;;9.91;100.00;100032.47;5033437;28;100901;-29
2023/04/01 11:02:27;;;;;;;2.63;1.70;;;;;;;9.93;100.00;100033.25;5035182;28;97335;-29
2023/04/01 11:05:30;;;;;;;2.55;1.05;;;;;;;9.97;100.00;100040.16;5033612;27;96851;-29
2023/04/01 11:07:58;;;;;;;2.08;1.15;;;;;;;10.00;100.00;100037.22;5035001;27;96838;-30
2023/04/01 11:11:11;;;;;;;3.17;1.42;;;;;;;10.06;100.00;100044.03;5034441;28;97564;-30
2023/04/01 11:13:39;;;;;;;;;;;;;;;10.03;100.00;100045.13;5034706;27;99744;-30
2023/04/01 11:16:32;;;;;;;0.95;0.63;;;;;;;10.04;100.00;100051.41;5034955;28;96580;-29
2023/04/01 11:19:00;;;;;;;1.83;1.13;;;;;;;10.06;100.00;100050.31;5033429;28;96781;-30
2023/04/01 11:21:34;;;;;;;1.77;1.20;;;;;;;10.04;100.00;100052.28;5034379;28;98208;-29
2023/04/01 11:24:18;;;;;;;2.72;1.58;;;;;;;10.07;100.00;100056.59;5034876;28;97621;-29
2023/04/01 11:27:20;;;;;;;4.10;2.03;;;;;;;10.03;100.00;100064.06;5034994;27;96733;-29
2023/04/01 11:29:45;;;;;;;;;;;;;;;9.97;100.00;100061.81;5003384;27;96831;-29
2023/04/01 11:32:25;;;;;;;2.80;1.07;;;;;;;9.97;100.00;100064.50;5034384;28;97302;-29
2023/04/01 11:35:12;;;;;;;3.35;1.60;;;;;;;9.97;100.00;100073.50;5034585;27;97854;-30
2023/04/01 11:37:58;;;;;;;0.80;0.63;;;;;;;9.93;100.00;100069.25;5032358;28;96740;-29
2023/04/01 11:40:39;;;;;;;2.55;1.27;;;;;;;9.92;100.00;100074.81;5033154;28;96885;-29
2023/04/01 11:43:29;;;;;;;4.28;1.75;;;;;;;9.94;100.00;100079.13;5034414;28;98023;-29
2023/04/01 11:46:12;;;;;;;2.40;1.42;;;;;;;9.95;100.00;100080.84;5034135;27;99089;-29
2023/04/01 11:49:05;;;;;;;3.08;1.67;;;;;;;9.96;100.00;100082.59;5032874;28;96756;-29
2023/04/01 11:52:08;;;;;;;3.25;1.65;;;;;;;9.99;100.00;100078.81;5036162;27;96891;-29
2023/04/01 11:55:01;;;;;;;2.28;1.35;;;;;;;10.07;100.00;100095.34;4975321;28;98472;-30
2023/04/01 11:57:50;;;;;;;3.80;2.03;;;;;;;10.09;100.00;100092.53;4975842;28;97433;-29
2023/04/01 12:00:34;;;;;;;4.85;1.55;;;;;;;10.14;100.00;100096.63;5025927;27;96833;-30
2023/04/01 12:03:42;;;;;;;4.78;1.83;;;;;;;10.14;100.00;100104.75;5037785;27;96625;-33
2023/04/01 12:06:23;;;;;;;3.47;1.70;;;;;;;10.16;100.00;100113.63;5036760;27;99781;-29
2023/04/01 12:08:57;;;;;;;6.38;2.28;;;;;;;10.19;100.00;100116.09;5036032;28;100891;-29